Aiwamaru — JD2602 — position and weather

sailwx.info

Track history (hours):
 
Tides and Currents Weather Stations Pressure Air Temp Water Temp Dewpoint Dewpoint Depression Visibility Wind Speed Wind Dir Waves Ship Positions

Aiwamaru

Last reported at 2016-Nov-30 08:33 UTC. Time now 2016-Dec-07 20:23 UTC.
Position N 34°36' E 135°03'.

Length 64 m; draft 4.8 m.

Type: Tanker. MMSI: 431000508.

Date/timePositionNaut miles runAvg speedWind from/ knotsBaromVisibWave heightAir tempDewpointWater temp
2016-Nov-30 08:33N 34°36' E 135°03'7 7.3
2016-Nov-30 07:33N 34°40' E 135°11'1 0.5
2016-Nov-30 06:25N 34°40' E 135°11'0 0.0
2016-Nov-30 05:31N 34°40' E 135°11'0 0.0
2016-Nov-30 04:31N 34°40' E 135°11'5 5.1
2016-Nov-30 03:33N 34°36' E 135°14'10 2.4
2016-Nov-29 23:33N 34°33' E 135°25'6 6.0
2016-Nov-29 22:30N 34°33' E 135°18'0 0.0
2016-Nov-29 21:24N 34°33' E 135°18'0 0.0
2016-Nov-29 20:30N 34°33' E 135°18'0 0.0
2016-Nov-29 19:12N 34°33' E 135°18'0 0.0
2016-Nov-29 18:06N 34°34' E 135°18'5 8.2
2016-Nov-29 17:33N 34°34' E 135°12'  
Track history (hours):
 
Tides and Currents Weather Stations Pressure Air Temp Water Temp Dewpoint Dewpoint Depression Visibility Wind Speed Wind Dir Waves Ship Positions

Aiwamaru

Last reported at 2016-Nov-30 08:33 UTC. Time now 2016-Dec-07 20:23 UTC.
Position N 34°36' E 135°03'.

Length 64 m; draft 4.8 m.

Type: Tanker. MMSI: 431000508.

Date/timePositionNaut miles runAvg speedWind from/ knotsBaromVisibWave heightAir tempDewpointWater temp
2016-Nov-30 08:33N 34°36' E 135°03'7 7.3
2016-Nov-30 07:33N 34°40' E 135°11'1 0.5
2016-Nov-30 06:25N 34°40' E 135°11'0 0.0
2016-Nov-30 05:31N 34°40' E 135°11'0 0.0
2016-Nov-30 04:31N 34°40' E 135°11'5 5.1
2016-Nov-30 03:33N 34°36' E 135°14'10 2.4
2016-Nov-29 23:33N 34°33' E 135°25'6 6.0
2016-Nov-29 22:30N 34°33' E 135°18'0 0.0
2016-Nov-29 21:24N 34°33' E 135°18'0 0.0
2016-Nov-29 20:30N 34°33' E 135°18'0 0.0
2016-Nov-29 19:12N 34°33' E 135°18'0 0.0
2016-Nov-29 18:06N 34°34' E 135°18'5 8.2
2016-Nov-29 17:33N 34°34' E 135°12'  

Dump ship's entire track history